Australia's Leading Digital Marketing Experts. T. 1300 235 433  |  Aggreagtion Enquires Welcome

ARFOR WordPress Shortcode Example

This page is used to demonstrate the ARFOR feature of the Metar WordPress plugin.

BANKSTOWN YSBK

TAF AMD YSBK 271409Z 2714/2800
VRB03KT 9999 FEW010 SCT025
TEMPO 2719/2722 9999 BKN010
PROB30 2715/2721 0500 FG BKN002
RMK
T 20 20 19 24 Q 1011 1010 1011 1013

METAR YSBK 271430Z AUTO 00000KT 9999 // NCD 20/19 Q1011 RMK
RF00.0/000.2

BATHURST YBTH

TAF YBTH 271304Z 2714/2802
VRB03KT CAVOK
FM280000 27008KT 9999 -SHRA SCT040
PROB30 2715/2722 0500 FG BKN001
RMK
T 17 15 14 22 Q 1015 1014 1015 1016

METAR YBTH 271430Z AUTO 04004KT 9999 // ////// 16/16 Q1015 RMK
RF00.0/000.0

CAMDEN YSCN

TAF AMD YSCN 271410Z 2714/2800
VRB03KT 9999 FEW010 SCT025
TEMPO 2718/2722 9999 BKN010
PROB30 2714/2721 0500 FG BKN002
RMK
T 21 19 18 23 Q 1011 1010 1011 1013

METAR YSCN 271430Z AUTO 00000KT 9000 // ////// 21/20 Q1011 RMK
RF00.0////./

CANBERRA YSCB

TAF YSCB 271416Z 2715/2812
VRB03KT CAVOK
FM272300 30011KT CAVOK
FM280900 VRB03KT CAVOK
RMK
T 15 13 15 23 Q 1013 1012 1014 1015
TAF3

METAR YSCB 271430Z AUTO 00000KT 9999 // NCD 11/07 Q1013
RMK RF00.0/000.0

COOMA YCOM

TAF YCOM 271306Z 2714/2802
30004KT CAVOK
FM280000 18010KT CAVOK
PROB40 2714/2722 0500 FG BKN001
RMK
T 10 10 10 17 Q 1014 1014 1014 1015

SPECI YCOM 271431Z AUTO 26004KT 9999 // BKN004 08/08 Q1014 RMK
RF00.0/000.0

COOTAMUNDRA YCTM

Nil current TAF.

METAR/SPECI observations are not generated for this location.

COWRA YCWR

Nil current TAF.

METAR YCWR 271430Z AUTO 08005KT //// // ////// 17/11 Q1012 RMK
RF00.0/000.0

FORBES YFBS

Nil current TAF.

METAR YFBS 271430Z AUTO 00000KT //// // ////// 18/14 Q1011 RMK
RF00.0/000.0

GOULBURN YGLB

TAF AMD YGLB 262353Z 2623/2708
05007KT 9999 BKN015
BECMG 2700/2701 30010KT 9999 SCT010
FM270300 26010KT CAVOK
RMK
T 18 23 26 23 Q 1015 1014 1011 1012

SPECI YGLB 271440Z AUTO 00000KT 5000 // BKN001 09/09 Q1014 RMK
RF00.0/000.0

HOLSWORTHY YSHW

TAF AMD YSHW 271410Z 2714/2800
VRB03KT 9999 FEW010 SCT025
TEMPO 2719/2722 9999 BKN010
PROB30 2715/2721 0500 FG BKN002
RMK
T 20 19 19 23 Q 1011 1010 1011 1013

METAR YSHW 271430Z AUTO 00000KT 9999 // NCD 20/19 Q1011 RMK
RF00.0/000.0

LORD HOWE ISLAND YLHI

TAF AMD YLHI 271351Z 2713/2812
VRB03KT 9999 -SHRA SCT010 BKN022
TEMPO 2713/2812 3000 SHRA BKN010
RMK
T 23 22 23 24 Q 1013 1011 1011 1013

METAR YLHI 271430Z AUTO 09006KT 9000 // OVC048 23/23 Q1012 RMK
RF00.0/000.0

MALLACOOTA YMCO

Nil current TAF.

METAR YMCO 271430Z AUTO 27004KT //// // ////// 15/13 Q1013 RMK
RF00.0/000.0

MERIMBULA YMER

TAF AMD YMER 271355Z 2714/2802
21005KT 9999 BKN020
FM280000 14007KT 9999 SCT035
PROB30 2714/2722 2000 BR BKN005
RMK
T 17 17 16 20 Q 1013 1013 1012 1013

METAR YMER 271430Z AUTO 21005KT 9999 // SCT045 16/15 Q1012 RMK
RF00.0/000.0

MORUYA YMRY

TAF AMD YMRY 271346Z 2714/2802
25004KT 9999 BKN016
FM272200 23005KT 9999 SCT025
FM280000 11010KT 9999 FEW035
TEMPO 2714/2720 9999 BKN012
RMK
T 18 18 18 21 Q 1012 1012 1012 1013

METAR YMRY 271430Z AUTO 24003KT 9999 // BKN019 17/15 Q1012 RMK
RF00.0/000.0

NORFOLK ISLAND YSNF

TAF YSNF 271119Z 2712/2812
12008KT 9999 BKN020
INTER 2712/2718 6000 SHRA BKN015
RMK
T 20 21 21 22 Q 1014 1013 1013 1014

METAR YSNF 271430Z AUTO 07004KT 9999 // NCD 19/18 Q1013 RMK
RF00.0/000.0

NOWRA YSNW

YSNW TAF AMD YSNW 271332Z 2713/2800
23004KT CAVOK
FM271600 23004KT 9999 SCT018
FM272200 20005KT 9999 FEW022
PROB40 2713/2722 0500 FG BKN001
RMK
T 17 17 17 20 Q 1011 1011 1011 1013

METAR YSNW 271430Z AUTO 00000KT 9999 // SCT007 17/17 Q1011 RMK
RF00.0/000.0

ORANGE YORG

TAF YORG 271315Z 2714/2802
VRB03KT CAVOK
FM280000 27008KT 9999 -SHRA SCT040
PROB30 2716/2722 0500 FG BKN001
RMK
T 15 14 13 21 Q 1016 1015 1015 1017

METAR YORG 271430Z AUTO 32002KT 9999 // SCT092 14/14 Q1016 RMK
RF00.0/000.2

PARKES YPKS

TAF YPKS 270016Z 2702/2714
31007KT CAVOK
FM270300 27008KT 9999 -SHRA NSC
FM270700 02005KT 9999 NSW NSC
RMK
T 29 30 29 22 Q 1012 1010 1010 1012

METAR YPKS 271430Z AUTO 04001KT 9999 // NCD 17/15 Q1012 RMK
RF00.0/000.0

RICHMOND (NSW) YSRI

TAF YSRI 271111Z 2712/2812
VRB03KT 9999 SCT010 SCT025
FM280000 06005KT 9999 FEW025
PROB30 2712/2722 0500 FG BKN005
PROB30 TEMPO 2804/2810 VRB20G35KT 4000 TSRA SCT040CB
RMK
T 21 20 19 20 Q 1011 1010 1010 1012

METAR YSRI 271430Z AUTO 00000KT 9000 // NCD 20/20 Q1011 RMK
RF00.0/000.2

SHELLHARBOUR YSHL

TAF YSHL 271230Z 2714/2802
33005KT 9999 FEW015 SCT025
FM271700 20008KT 9999 SCT010 BKN020
FM272300 17010KT 9999 FEW025
TEMPO 2714/2722 9999 BKN015
RMK
T 20 19 19 24 Q 1011 1010 1012 1013

METAR YSHL 271430Z AUTO 25003KT 9999 // SCT024 18/18 Q1011 RMK
RF00.0/000.0

SYDNEY YSSY

TAF AMD YSSY 271406Z 2715/2818
29005KT 9999 FEW010 SCT025
FM271900 19008KT 9999 BKN010
FM272200 18010KT 9999 SCT010 BKN020
FM280000 14012KT 9999 FEW030
FM281200 29005KT 9999 SCT025
RMK
T 22 21 22 24 Q 1010 1010 1012 1013
TAF3

METAR YSSY 271430Z 36001KT 9999 FEW030 SCT175 22/19 Q1011
RMK RF00.0/000.2

TEMORA YTEM

Nil current TAF.

METAR YTEM 271430Z AUTO 20004KT //// // ////// 15/06 Q1012 RMK
RF00.0/000.0

WAGGA WAGGA YSWG

TAF YSWG 271125Z 2712/2800
VRB03KT CAVOK
RMK
T 20 17 15 17 Q 1011 1011 1011 1012

METAR YSWG 271430Z AUTO 06007KT 9999 // NCD 16/07 Q1012 RMK
RF00.0/000.0

YOUNG YYNG

TAF YYNG 270004Z 2702/2714
25009KT CAVOK
FM271000 VRB03KT CAVOK
RMK
T 28 30 27 20 Q 1012 1010 1010 1012

METAR YYNG 271430Z AUTO 00000KT 9999 // SCT115 12/09 Q1012 RMK
RF00.0/000.0